< Cyclone 197103 1971 Season Cyclone 197106 >
Cyclone 197105 (JANET)
General InformationTrack Information on Google Maps || ResourceGoogle EarthGE AnimationAtom FeedGeoJSON
Detalied Best Track (Time Zone = UTC)
Year Month Day Hour Lat. Long. Pressure (hPa) Wind (kt) Class Image Chart
1970 12 19 00 -7.9 97.0 1004 0 0 -- --
1970 12 19 03 -8.0 97.2 1002 0 0 -- --
1970 12 19 06 -8.2 97.3 1000 0 0 -- --
1970 12 19 09 -8.3 97.4 999 0 0 -- --
1970 12 19 12 -8.4 97.5 997 0 0 -- --
1970 12 19 15 -8.6 97.7 995 0 0 -- --
1970 12 19 18 -8.7 97.8 994 0 0 -- --
1970 12 19 21 -8.8 97.9 992 0 0 -- --
1970 12 20 00 -8.9 98.0 990 0 0 -- --
1970 12 20 03 -9.2 98.2 990 0 0 -- --
1970 12 20 06 -9.6 98.5 990 0 0 -- --
1970 12 20 09 -10.0 98.7 990 0 0 -- --
1970 12 20 12 -10.4 99.0 990 0 0 -- --
1970 12 20 15 -10.7 99.2 990 0 0 -- --
1970 12 20 18 -11.1 99.5 990 0 0 -- --
1970 12 20 21 -11.5 99.7 990 0 0 -- --
1970 12 21 00 -11.9 100.0 990 0 0 -- --
1970 12 21 03 -12.5 100.3 989 0 0 -- --
1970 12 21 06 -13.4 100.6 987 0 0 -- --
1970 12 21 09 -14.5 101.0 986 0 0 -- --
1970 12 21 12 -16.1 101.3 985 0 0 -- --
1970 12 21 15 -17.0 101.1 984 0 0 -- --
1970 12 21 18 -17.6 100.7 983 0 0 -- --
1970 12 21 21 -18.0 100.3 982 0 0 -- --
1970 12 22 00 -18.3 100.0 980 0 0 -- --
1970 12 22 03 -18.6 99.7 980 0 0 -- --
1970 12 22 06 -18.8 99.5 982 0 0 -- --
1970 12 22 09 -19.1 99.3 984 0 0 -- --
1970 12 22 12 -19.3 99.0 986 0 0 -- --
1970 12 22 15 -19.5 98.7 989 0 0 -- --
1970 12 22 18 -19.7 98.5 991 0 0 -- --
1970 12 22 21 -20.0 98.3 993 0 0 -- --
1970 12 23 00 -20.2 98.0 995 0 0 -- --
1970 12 23 03 -20.4 97.5 997 0 0 -- --
1970 12 23 06 -20.5 97.1 999 0 0 -- --
1970 12 23 09 -20.7 96.7 1000 0 0 -- --
1970 12 23 12 -20.8 96.2 1000 0 0 -- --
1970 12 23 15 -20.8 95.6 1001 0 0 -- --
1970 12 23 18 -20.8 95.0 1001 0 0 -- --
1970 12 23 21 -20.8 94.4 1001 0 0 -- --
1970 12 24 00 -20.7 93.9 1002 0 0 -- --
1970 12 24 03 -20.7 93.0 1002 0 0 -- --
1970 12 24 06 -20.6 92.1 1002 0 0 -- --
1970 12 24 09 -20.5 91.2 1002 0 0 -- --
1970 12 24 12 -20.3 90.2 1003 0 0 -- --
< Cyclone 197103 1971 Season Cyclone 197106 >

Help